Time;durP1;ratioP1;P1;durP2;ratioP2;P2;SDS_P1;SDS_P2;PMS_P1;PMS_P2;Temp;Humidity;BMP_temperature;BMP_pressure;BME280_temperature;BME280_humidity;BME280_pressure;Samples;Min_cycle;Max_cycle;Signal;HPM_P1;HPM_P2
2023/09/05 00:00:16;;;;;;;5.60;5.20;;;14.90;99.90;;;;;;5037569;28;20935;-61
2023/09/05 00:02:48;;;;;;;6.53;6.07;;;14.90;99.90;;;;;;5021289;28;20493;-61
2023/09/05 00:05:18;;;;;;;5.30;4.80;;;14.80;99.90;;;;;;5023239;28;20909;-61
2023/09/05 00:07:47;;;;;;;5.60;5.20;;;14.80;99.90;;;;;;5023642;28;20555;-59
2023/09/05 00:10:15;;;;;;;5.60;5.20;;;14.80;99.90;;;;;;5020831;28;20475;-61
2023/09/05 00:12:44;;;;;;;6.23;5.73;;;14.80;99.90;;;;;;5007987;28;20513;-62
2023/09/05 00:15:14;;;;;;;5.60;5.20;;;14.70;99.90;;;;;;5015153;28;20633;-59
2023/09/05 00:17:43;;;;;;;5.50;5.10;;;14.70;99.90;;;;;;5018771;28;20469;-60
2023/09/05 00:20:15;;;;;;;5.97;5.57;;;14.70;99.90;;;;;;5004500;28;23117;-57
2023/09/05 00:22:44;;;;;;;5.97;5.57;;;14.60;99.90;;;;;;5018254;28;20470;-58
2023/09/05 00:25:15;;;;;;;6.00;5.50;;;14.60;99.90;;;;;;5023908;28;21521;-58
2023/09/05 00:27:43;;;;;;;6.20;5.70;;;14.60;99.90;;;;;;5024975;28;20474;-57
2023/09/05 00:30:14;;;;;;;6.20;5.60;;;14.50;99.90;;;;;;5025795;28;21009;-57
2023/09/05 00:32:42;;;;;;;5.90;5.50;;;14.50;99.90;;;;;;5023971;28;20487;-56
2023/09/05 00:35:11;;;;;;;5.90;5.40;;;14.50;99.90;;;;;;5023462;28;20494;-57
2023/09/05 00:37:39;;;;;;;5.47;5.03;;;14.50;99.90;;;;;;5026863;28;20595;-56
2023/09/05 00:40:08;;;;;;;5.53;5.13;;;14.50;99.90;;;;;;5029292;28;20597;-57
2023/09/05 00:42:38;;;;;;;5.43;5.03;;;14.40;99.90;;;;;;5024438;28;20470;-58
2023/09/05 00:45:06;;;;;;;5.27;4.87;;;14.40;99.90;;;;;;5025095;28;20582;-56
2023/09/05 00:47:34;;;;;;;6.13;5.53;;;14.40;99.90;;;;;;5034643;28;20559;-58
2023/09/05 00:50:05;;;;;;;5.90;5.43;;;14.30;99.90;;;;;;5038510;28;20462;-57
2023/09/05 00:52:36;;;;;;;5.97;5.47;;;14.30;99.90;;;;;;5033001;28;21069;-58
2023/09/05 00:55:05;;;;;;;4.83;4.43;;;14.30;99.90;;;;;;5042888;28;20938;-58
2023/09/05 00:57:33;;;;;;;5.70;5.20;;;14.30;99.90;;;;;;5041677;28;20972;-58
2023/09/05 01:00:05;;;;;;;5.80;5.40;;;14.30;99.90;;;;;;5041741;28;20551;-57
2023/09/05 01:02:34;;;;;;;5.87;5.30;;;14.30;99.90;;;;;;5026776;28;20466;-58
2023/09/05 01:05:04;;;;;;;5.90;5.40;;;14.20;99.90;;;;;;5027969;28;20499;-58
2023/09/05 01:07:41;;;;;;;5.33;4.93;;;14.20;99.90;;;;;;5022467;28;21088;-58
2023/09/05 01:10:12;;;;;;;6.37;5.87;;;14.20;99.90;;;;;;5025076;28;20859;-58
2023/09/05 01:12:40;;;;;;;5.10;4.70;;;14.10;99.90;;;;;;5026629;28;20494;-57
2023/09/05 01:15:10;;;;;;;4.90;4.50;;;14.10;99.90;;;;;;5014184;28;20508;-58
2023/09/05 01:17:38;;;;;;;5.00;4.70;;;14.10;99.90;;;;;;5012732;28;20932;-57
2023/09/05 01:20:08;;;;;;;5.30;4.90;;;14.10;99.90;;;;;;5025862;28;20474;-58
2023/09/05 01:22:44;;;;;;;5.40;5.00;;;14.10;99.90;;;;;;5033040;28;20474;-58
2023/09/05 01:25:14;;;;;;;5.20;4.80;;;14.10;99.90;;;;;;5025122;28;20906;-57
2023/09/05 01:27:42;;;;;;;5.53;5.13;;;14.00;99.90;;;;;;5027167;28;20569;-57
2023/09/05 01:30:11;;;;;;;5.47;5.07;;;14.00;99.90;;;;;;5020570;28;20488;-57
2023/09/05 01:32:39;;;;;;;5.23;4.83;;;14.10;99.90;;;;;;5023453;28;20521;-58
2023/09/05 01:35:08;;;;;;;5.57;5.13;;;14.00;99.90;;;;;;5024534;28;20486;-57
2023/09/05 01:37:36;;;;;;;5.07;4.67;;;14.00;99.90;;;;;;5021277;28;20603;-58
2023/09/05 01:40:05;;;;;;;5.53;5.13;;;14.00;99.90;;;;;;5022022;28;21989;-58
2023/09/05 01:42:34;;;;;;;5.03;4.63;;;13.90;99.90;;;;;;5022740;28;20881;-58
2023/09/05 01:45:02;;;;;;;5.43;5.03;;;14.00;99.90;;;;;;5035355;28;20890;-58
2023/09/05 01:47:30;;;;;;;4.40;4.07;;;13.90;99.90;;;;;;5036623;28;20959;-58
2023/09/05 01:49:58;;;;;;;5.20;4.70;;;13.90;99.90;;;;;;5035667;28;20528;-58
2023/09/05 01:52:26;;;;;;;5.47;5.00;;;13.90;99.90;;;;;;5033292;28;21526;-58
2023/09/05 01:54:54;;;;;;;5.47;5.00;;;13.90;99.90;;;;;;5041701;28;20515;-58
2023/09/05 01:57:22;;;;;;;5.47;4.97;;;13.90;99.90;;;;;;5037286;28;20547;-58
2023/09/05 01:59:51;;;;;;;5.20;4.80;;;13.80;99.90;;;;;;5039962;28;20470;-58
2023/09/05 02:02:19;;;;;;;4.77;4.37;;;13.80;99.90;;;;;;5038443;28;21030;-58
2023/09/05 02:04:47;;;;;;;5.60;4.97;;;13.80;99.90;;;;;;5038397;28;20481;-58
2023/09/05 02:07:18;;;;;;;5.10;4.70;;;13.80;99.90;;;;;;5041955;28;20604;-57
2023/09/05 02:09:46;;;;;;;5.27;4.70;;;13.80;99.90;;;;;;5041984;28;20466;-58
2023/09/05 02:12:14;;;;;;;5.43;4.97;;;13.80;99.90;;;;;;5039199;28;20474;-58
2023/09/05 02:14:45;;;;;;;5.13;4.73;;;13.80;99.90;;;;;;5036928;28;20565;-58
2023/09/05 02:17:16;;;;;;;5.23;4.93;;;13.80;99.90;;;;;;5037269;28;20478;-58
2023/09/05 02:19:44;;;;;;;5.33;4.83;;;13.70;99.90;;;;;;5037970;28;20565;-57
2023/09/05 02:22:12;;;;;;;4.90;4.50;;;13.70;99.90;;;;;;5040972;28;20462;-58
2023/09/05 02:24:41;;;;;;;5.03;4.63;;;13.70;99.90;;;;;;5033538;28;21031;-58
2023/09/05 02:27:09;;;;;;;5.17;4.77;;;13.70;99.90;;;;;;5030301;28;20928;-58
2023/09/05 02:29:37;;;;;;;5.50;5.10;;;13.70;99.90;;;;;;5040272;28;20474;-57
2023/09/05 02:32:06;;;;;;;4.60;4.00;;;13.70;99.90;;;;;;5032421;28;20672;-58
2023/09/05 02:34:35;;;;;;;5.20;4.80;;;13.70;99.90;;;;;;5032148;28;21120;-58
2023/09/05 02:37:04;;;;;;;5.13;4.63;;;13.70;99.90;;;;;;5030184;28;20474;-58
2023/09/05 02:39:32;;;;;;;5.30;4.90;;;13.70;99.90;;;;;;5031788;28;20532;-57
2023/09/05 02:42:00;;;;;;;5.50;5.10;;;13.70;99.90;;;;;;5037299;28;20566;-58
2023/09/05 02:44:28;;;;;;;5.17;4.67;;;13.60;99.90;;;;;;5033655;28;20463;-57
2023/09/05 02:46:57;;;;;;;5.13;4.70;;;13.60;99.90;;;;;;5030369;28;20466;-58
2023/09/05 02:49:25;;;;;;;4.77;4.37;;;13.60;99.90;;;;;;5028112;28;20980;-57
2023/09/05 02:51:54;;;;;;;5.37;4.87;;;13.70;99.90;;;;;;5030176;28;20470;-56
2023/09/05 02:54:28;;;;;;;5.17;4.67;;;13.60;99.90;;;;;;5031040;28;20590;-58
2023/09/05 02:56:56;;;;;;;5.40;5.00;;;13.60;99.90;;;;;;5036032;28;20581;-58
2023/09/05 02:59:24;;;;;;;4.70;4.40;;;13.60;99.90;;;;;;5033593;28;20612;-58
2023/09/05 03:01:52;;;;;;;4.43;4.13;;;13.60;99.90;;;;;;5036033;28;20555;-57
2023/09/05 03:04:20;;;;;;;5.13;4.83;;;13.60;99.90;;;;;;5037920;28;21039;-58
2023/09/05 03:06:48;;;;;;;4.53;4.23;;;13.50;99.90;;;;;;5028641;28;20570;-58
2023/09/05 03:09:17;;;;;;;5.07;4.67;;;13.50;99.90;;;;;;5037741;28;20566;-58
2023/09/05 03:11:45;;;;;;;4.80;4.50;;;13.50;99.90;;;;;;5037491;28;20524;-58
2023/09/05 03:14:13;;;;;;;4.80;4.50;;;13.50;99.90;;;;;;5034641;28;21100;-58
2023/09/05 03:16:41;;;;;;;5.20;4.80;;;13.50;99.90;;;;;;5034588;28;20595;-57
2023/09/05 03:19:11;;;;;;;5.37;4.87;;;13.50;99.90;;;;;;5043555;28;20829;-58
2023/09/05 03:21:39;;;;;;;5.30;4.90;;;13.50;99.90;;;;;;5039537;28;20557;-57
2023/09/05 03:24:07;;;;;;;4.87;4.47;;;13.50;99.90;;;;;;5040551;28;20473;-57
2023/09/05 03:26:37;;;;;;;4.73;4.43;;;13.50;99.90;;;;;;5033863;28;20596;-57
2023/09/05 03:29:07;;;;;;;5.40;4.97;;;13.50;99.90;;;;;;5031973;28;20466;-57
2023/09/05 03:31:35;;;;;;;5.03;4.63;;;13.50;99.90;;;;;;5035641;28;20557;-58
2023/09/05 03:34:03;;;;;;;5.37;4.97;;;13.40;99.90;;;;;;5039312;28;20486;-58
2023/09/05 03:36:32;;;;;;;5.47;4.67;;;13.40;99.90;;;;;;5032982;28;20559;-58
2023/09/05 03:39:00;;;;;;;5.83;5.33;;;13.40;99.90;;;;;;5041463;28;20490;-57
2023/09/05 03:41:28;;;;;;;4.43;4.13;;;13.40;99.90;;;;;;5033442;28;21573;-57
2023/09/05 03:43:57;;;;;;;4.80;4.50;;;13.40;99.90;;;;;;5039036;28;20518;-57
2023/09/05 03:46:25;;;;;;;5.50;5.10;;;13.40;99.90;;;;;;5034417;28;21205;-57
2023/09/05 03:48:55;;;;;;;5.30;4.80;;;13.40;99.90;;;;;;5045324;28;20902;-58
2023/09/05 03:51:23;;;;;;;5.90;5.30;;;13.40;99.90;;;;;;5037811;28;20467;-57
2023/09/05 03:53:51;;;;;;;5.10;4.80;;;13.40;99.90;;;;;;5042269;28;21037;-57
2023/09/05 03:56:21;;;;;;;5.47;5.07;;;13.30;99.90;;;;;;5038852;28;20576;-57
2023/09/05 03:58:49;;;;;;;5.37;4.97;;;13.30;99.90;;;;;;5040493;28;20552;-60
2023/09/05 04:01:18;;;;;;;5.60;5.10;;;13.30;99.90;;;;;;5040317;28;21141;-57
2023/09/05 04:03:46;;;;;;;5.27;4.87;;;13.30;99.90;;;;;;5034838;28;20463;-56
2023/09/05 04:06:14;;;;;;;4.90;4.50;;;13.30;99.90;;;;;;5038466;28;20873;-59
2023/09/05 04:08:43;;;;;;;5.30;4.90;;;13.30;99.90;;;;;;5038678;28;20470;-57
2023/09/05 04:11:11;;;;;;;5.70;5.30;;;13.30;99.90;;;;;;5041156;28;20483;-58
2023/09/05 04:13:39;;;;;;;5.40;5.00;;;13.30;99.90;;;;;;5036969;28;20586;-58
2023/09/05 04:16:07;;;;;;;5.37;5.00;;;13.30;99.90;;;;;;5037411;28;20577;-58
2023/09/05 04:18:36;;;;;;;5.53;5.03;;;13.30;99.90;;;;;;5035602;28;20553;-58
2023/09/05 04:21:04;;;;;;;5.50;5.00;;;13.30;99.90;;;;;;5033319;28;20965;-58
2023/09/05 04:23:32;;;;;;;5.47;5.00;;;13.30;99.90;;;;;;5037330;28;20573;-57
2023/09/05 04:26:02;;;;;;;5.37;4.90;;;13.30;99.90;;;;;;5034473;28;20681;-58
2023/09/05 04:28:31;;;;;;;6.07;5.53;;;13.30;99.90;;;;;;5034024;28;20481;-58
2023/09/05 04:31:02;;;;;;;5.30;4.93;;;13.30;99.90;;;;;;5030490;28;20558;-58
2023/09/05 04:33:36;;;;;;;6.10;5.53;;;13.30;99.90;;;;;;5032021;28;20471;-58
2023/09/05 04:36:09;;;;;;;5.70;5.30;;;13.30;99.90;;;;;;5033456;28;20493;-57
2023/09/05 04:38:38;;;;;;;6.60;6.00;;;13.30;99.90;;;;;;5028134;28;20573;-56
2023/09/05 04:41:07;;;;;;;5.57;5.17;;;13.30;99.90;;;;;;5034767;28;20482;-57
2023/09/05 04:43:36;;;;;;;5.67;5.17;;;13.30;99.90;;;;;;5029817;28;20470;-57
2023/09/05 04:46:05;;;;;;;5.23;4.83;;;13.30;99.90;;;;;;5030362;28;20483;-57
2023/09/05 04:48:34;;;;;;;6.17;5.67;;;13.30;99.90;;;;;;5023384;28;21812;-57
2023/09/05 04:51:03;;;;;;;6.80;6.30;;;13.30;99.90;;;;;;5020752;28;20901;-58
2023/09/05 04:53:33;;;;;;;6.30;5.80;;;13.30;99.90;;;;;;5023314;28;20494;-58
2023/09/05 04:56:02;;;;;;;5.77;5.37;;;13.40;99.90;;;;;;5022185;28;20585;-56
2023/09/05 04:58:31;;;;;;;6.60;6.00;;;13.40;99.90;;;;;;5030594;28;20565;-56
2023/09/05 05:01:02;;;;;;;6.27;5.77;;;13.50;99.90;;;;;;5034483;28;20479;-57
2023/09/05 05:03:31;;;;;;;6.70;6.10;;;13.60;99.90;;;;;;5038569;28;20488;-57
2023/09/05 05:05:59;;;;;;;6.77;6.17;;;13.60;99.90;;;;;;5028523;28;21011;-57
2023/09/05 05:08:27;;;;;;;7.10;6.50;;;13.60;99.90;;;;;;5021866;28;20471;-57
2023/09/05 05:10:57;;;;;;;6.30;5.80;;;13.60;99.90;;;;;;5018521;28;20562;-57
2023/09/05 05:13:25;;;;;;;6.77;6.27;;;13.60;99.90;;;;;;5024450;28;20749;-57
2023/09/05 05:15:53;;;;;;;8.40;7.13;;;13.70;99.90;;;;;;5031682;28;20593;-58
2023/09/05 05:18:20;;;;;;;7.80;7.17;;;13.80;99.90;;;;;;5030137;28;20484;-57
2023/09/05 05:20:48;;;;;;;6.97;6.47;;;13.80;99.90;;;;;;5025993;28;20549;-57
2023/09/05 05:23:16;;;;;;;8.00;7.30;;;13.90;99.90;;;;;;5028511;28;20505;-56
2023/09/05 05:25:47;;;;;;;7.23;6.63;;;14.00;99.90;;;;;;5015688;28;20497;-57
2023/09/05 05:28:16;;;;;;;7.70;7.10;;;14.00;99.90;;;;;;5034829;28;20553;-57
2023/09/05 05:30:44;;;;;;;8.17;7.47;;;14.10;99.90;;;;;;5032267;28;20719;-57
2023/09/05 05:33:12;;;;;;;7.00;6.50;;;14.10;99.90;;;;;;5035236;28;20563;-58
2023/09/05 05:35:41;;;;;;;6.87;6.30;;;14.10;99.90;;;;;;5032760;28;20490;-58
2023/09/05 05:38:09;;;;;;;7.37;6.77;;;14.10;99.90;;;;;;5032794;28;20779;-58
2023/09/05 05:40:37;;;;;;;8.23;7.53;;;14.10;99.90;;;;;;5035921;28;20915;-57
2023/09/05 05:43:05;;;;;;;7.83;7.13;;;14.20;99.90;;;;;;5038347;28;20914;-58
2023/09/05 05:45:34;;;;;;;8.00;7.30;;;14.20;99.90;;;;;;5045167;28;20551;-58
2023/09/05 05:48:03;;;;;;;9.03;7.67;;;14.30;99.90;;;;;;5042150;28;20955;-58
2023/09/05 05:50:31;;;;;;;7.60;7.00;;;14.30;99.90;;;;;;5034429;28;20470;-57
2023/09/05 05:52:59;;;;;;;7.57;6.97;;;14.40;99.90;;;;;;5030975;28;20481;-58
2023/09/05 05:55:27;;;;;;;8.60;7.80;;;14.50;99.90;;;;;;5041116;28;20875;-58
2023/09/05 05:57:57;;;;;;;8.17;7.47;;;14.50;99.90;;;;;;5046635;28;20470;-57
2023/09/05 06:00:26;;;;;;;8.40;7.60;;;14.50;99.90;;;;;;5044821;28;20564;-58
2023/09/05 06:02:56;;;;;;;8.00;7.30;;;14.60;99.90;;;;;;5042592;28;20491;-57
2023/09/05 06:05:24;;;;;;;7.90;7.20;;;14.70;99.90;;;;;;5046701;28;20496;-57
2023/09/05 06:07:52;;;;;;;8.37;7.47;;;14.80;99.90;;;;;;5042501;28;20544;-57
2023/09/05 06:10:20;;;;;;;8.20;7.40;;;14.90;99.90;;;;;;5045187;28;20462;-58
2023/09/05 06:12:48;;;;;;;8.40;7.60;;;15.00;99.90;;;;;;5035226;28;21032;-57
2023/09/05 06:15:16;;;;;;;7.77;7.13;;;15.10;99.90;;;;;;5043117;28;20490;-57
2023/09/05 06:17:44;;;;;;;8.10;7.30;;;15.20;99.90;;;;;;5042649;28;21009;-57
2023/09/05 06:20:14;;;;;;;10.07;8.03;;;15.20;99.90;;;;;;5035845;28;21243;-57
2023/09/05 06:22:42;;;;;;;8.90;8.10;;;15.30;99.90;;;;;;5039347;28;20485;-58
2023/09/05 06:25:10;;;;;;;10.83;7.60;;;15.40;99.90;;;;;;5042726;28;20573;-57
2023/09/05 06:27:43;;;;;;;9.23;8.00;;;15.40;99.90;;;;;;5042544;28;20462;-57
2023/09/05 06:30:12;;;;;;;8.70;8.00;;;15.50;99.90;;;;;;5040370;28;20466;-58
2023/09/05 06:32:40;;;;;;;7.80;7.03;;;15.60;99.90;;;;;;5038083;28;20467;-58
2023/09/05 06:35:09;;;;;;;8.80;8.00;;;15.60;99.90;;;;;;5039639;28;20493;-58
2023/09/05 06:37:39;;;;;;;8.53;7.40;;;15.70;99.90;;;;;;5043763;28;20498;-57
2023/09/05 06:40:14;;;;;;;9.70;8.70;;;15.70;99.90;;;;;;5038833;28;20904;-58
2023/09/05 06:42:42;;;;;;;9.40;8.00;;;15.80;99.90;;;;;;5039799;28;20535;-58
2023/09/05 06:45:11;;;;;;;8.17;7.37;;;15.90;99.90;;;;;;5043453;28;21033;-58
2023/09/05 06:47:39;;;;;;;8.13;7.43;;;16.00;99.90;;;;;;5037951;28;20535;-57
2023/09/05 06:50:09;;;;;;;9.47;8.20;;;16.10;99.90;;;;;;5041766;28;20500;-58
2023/09/05 06:52:39;;;;;;;9.57;8.57;;;16.20;99.90;;;;;;5042731;28;20852;-58
2023/09/05 06:55:07;;;;;;;8.63;7.67;;;16.20;99.90;;;;;;5036292;28;20490;-59
2023/09/05 06:57:35;;;;;;;8.63;7.27;;;16.20;99.90;;;;;;5038722;28;20505;-59
2023/09/05 07:00:04;;;;;;;8.60;7.60;;;16.30;99.90;;;;;;5040434;28;20541;-58
2023/09/05 07:02:32;;;;;;;8.10;7.40;;;16.40;99.90;;;;;;5040403;28;20494;-59
2023/09/05 07:05:00;;;;;;;8.53;7.73;;;16.40;99.90;;;;;;5035879;28;20573;-58
2023/09/05 07:07:29;;;;;;;8.27;7.40;;;16.60;99.90;;;;;;5039638;28;20846;-58
2023/09/05 07:09:58;;;;;;;9.13;7.20;;;16.70;99.90;;;;;;5034959;28;20828;-58
2023/09/05 07:12:26;;;;;;;7.67;6.90;;;16.70;99.90;;;;;;5037849;28;20462;-58
2023/09/05 07:14:54;;;;;;;7.50;6.90;;;16.80;99.90;;;;;;5037094;28;20497;-58
2023/09/05 07:17:22;;;;;;;7.07;6.43;;;16.80;99.90;;;;;;5044066;28;21046;-59
2023/09/05 07:19:50;;;;;;;7.17;6.47;;;16.90;99.90;;;;;;5036664;28;20477;-58
2023/09/05 07:22:18;;;;;;;7.20;6.50;;;17.00;99.90;;;;;;5040121;28;20481;-58
2023/09/05 07:24:46;;;;;;;8.70;6.80;;;17.00;99.90;;;;;;5037109;28;20529;-59
2023/09/05 07:27:16;;;;;;;7.20;6.60;;;17.20;99.90;;;;;;5040342;28;21039;-58
2023/09/05 07:29:44;;;;;;;6.90;6.33;;;17.20;99.90;;;;;;5037340;28;20517;-59
2023/09/05 07:32:12;;;;;;;7.07;6.47;;;17.30;99.90;;;;;;5043626;28;20470;-58
2023/09/05 07:34:41;;;;;;;6.73;6.23;;;17.50;99.90;;;;;;5042413;28;21066;-59
2023/09/05 07:37:09;;;;;;;8.10;7.20;;;17.60;99.90;;;;;;5037235;28;20573;-59
2023/09/05 07:39:38;;;;;;;6.23;5.83;;;17.60;99.90;;;;;;5040636;28;20990;-57
2023/09/05 07:42:06;;;;;;;6.90;6.30;;;17.70;99.90;;;;;;5042082;28;20466;-58
2023/09/05 07:44:36;;;;;;;7.10;6.50;;;17.80;99.90;;;;;;5042748;28;20486;-59
2023/09/05 07:47:04;;;;;;;7.77;6.97;;;17.90;99.90;;;;;;5040557;28;20565;-59
2023/09/05 07:49:36;;;;;;;7.60;6.03;;;18.00;99.90;;;;;;5042422;28;21036;-57
2023/09/05 07:52:05;;;;;;;6.90;6.20;;;18.10;99.90;;;;;;5035643;28;20474;-58
2023/09/05 07:54:35;;;;;;;8.93;6.10;;;18.30;99.90;;;;;;5034696;28;20466;-59
2023/09/05 07:57:03;;;;;;;6.43;5.70;;;18.30;99.90;;;;;;5042415;28;20488;-59
2023/09/05 07:59:32;;;;;;;6.03;5.53;;;18.50;99.90;;;;;;5040229;28;20471;-59
2023/09/05 08:02:01;;;;;;;6.67;6.07;;;18.50;99.90;;;;;;5034399;28;21039;-59
2023/09/05 08:04:30;;;;;;;6.43;5.70;;;18.70;99.90;;;;;;5041250;28;20579;-59
2023/09/05 08:06:59;;;;;;;5.70;5.30;;;18.80;99.90;;;;;;5034644;28;21311;-59
2023/09/05 08:09:27;;;;;;;6.37;5.70;;;18.90;99.90;;;;;;5031419;28;20466;-58
2023/09/05 08:11:55;;;;;;;7.10;6.20;;;19.00;99.90;;;;;;5036227;28;20505;-58
2023/09/05 08:14:23;;;;;;;6.20;5.63;;;19.00;99.90;;;;;;5031572;28;20462;-59
2023/09/05 08:16:53;;;;;;;5.97;5.57;;;19.10;99.90;;;;;;5033103;28;20487;-59
2023/09/05 08:19:22;;;;;;;5.93;5.43;;;19.20;99.90;;;;;;5036443;28;20480;-59
2023/09/05 08:21:50;;;;;;;5.87;5.37;;;19.30;99.90;;;;;;5035834;28;21049;-59
2023/09/05 08:24:18;;;;;;;5.80;5.33;;;19.40;99.90;;;;;;5040207;28;20471;-58
2023/09/05 08:26:47;;;;;;;6.20;5.57;;;19.40;99.90;;;;;;5037451;28;20486;-59
2023/09/05 08:29:15;;;;;;;5.83;5.07;;;19.50;99.90;;;;;;5034302;28;20517;-58
2023/09/05 08:31:44;;;;;;;5.53;5.10;;;19.50;99.90;;;;;;5040044;28;20502;-59
2023/09/05 08:34:12;;;;;;;5.73;5.33;;;19.50;99.90;;;;;;5042226;28;20566;-59
2023/09/05 08:36:42;;;;;;;5.63;5.00;;;19.60;99.90;;;;;;5041968;28;20485;-59
2023/09/05 08:39:10;;;;;;;5.93;4.93;;;19.70;99.90;;;;;;5035266;28;20614;-58
2023/09/05 08:41:38;;;;;;;10.40;6.03;;;19.70;99.90;;;;;;5034420;28;20474;-59
2023/09/05 08:44:07;;;;;;;7.03;5.67;;;19.80;99.90;;;;;;5037238;28;20547;-59
2023/09/05 08:46:36;;;;;;;6.10;5.30;;;19.90;99.90;;;;;;5040429;28;20490;-59
2023/09/05 08:49:04;;;;;;;5.63;5.17;;;20.00;99.90;;;;;;5039424;28;20531;-59
2023/09/05 08:51:33;;;;;;;5.40;4.90;;;20.00;99.90;;;;;;5033590;28;20557;-58
2023/09/05 08:54:05;;;;;;;6.23;5.50;;;20.10;99.90;;;;;;5036067;28;20964;-59
2023/09/05 08:56:33;;;;;;;5.30;4.90;;;20.20;99.90;;;;;;5029652;28;20581;-59
2023/09/05 08:59:02;;;;;;;5.80;5.40;;;20.30;99.90;;;;;;5038105;28;20470;-59
2023/09/05 09:01:33;;;;;;;8.23;4.60;;;20.40;99.90;;;;;;5037310;28;20536;-59
2023/09/05 09:04:03;;;;;;;5.33;4.93;;;20.40;99.90;;;;;;5040529;28;20469;-59
2023/09/05 09:06:31;;;;;;;7.70;5.50;;;20.50;99.90;;;;;;5035835;28;21037;-59
2023/09/05 09:08:59;;;;;;;5.37;5.00;;;20.60;99.90;;;;;;5042651;28;20540;-59
2023/09/05 09:11:28;;;;;;;5.30;4.90;;;20.70;99.90;;;;;;5039033;28;20482;-59
2023/09/05 09:14:00;;;;;;;4.90;4.50;;;20.80;99.90;;;;;;5038225;28;20549;-59
2023/09/05 09:16:28;;;;;;;5.50;5.00;;;20.90;99.90;;;;;;5045447;28;20870;-59
2023/09/05 09:19:02;;;;;;;5.70;5.20;;;21.00;99.90;;;;;;5048364;28;20474;-59
2023/09/05 09:21:31;;;;;;;5.10;4.60;;;21.10;99.90;;;;;;5044602;28;20474;-58
2023/09/05 09:24:00;;;;;;;5.70;4.93;;;21.20;99.90;;;;;;5049171;28;20474;-59
2023/09/05 09:26:29;;;;;;;5.40;4.90;;;21.30;99.90;;;;;;5039075;28;20827;-59
2023/09/05 09:28:58;;;;;;;6.00;5.50;;;21.40;99.90;;;;;;5045024;28;20483;-59
2023/09/05 09:31:27;;;;;;;5.17;4.70;;;21.40;99.90;;;;;;5045173;28;20980;-59
2023/09/05 09:33:57;;;;;;;5.17;4.67;;;21.60;99.90;;;;;;5047076;28;20463;-59
2023/09/05 09:36:33;;;;;;;5.70;4.97;;;21.70;99.90;;;;;;5049143;28;20584;-59
2023/09/05 09:39:08;;;;;;;5.00;4.50;;;21.80;99.90;;;;;;5045124;28;20491;-59
2023/09/05 09:41:44;;;;;;;4.97;4.53;;;21.90;99.90;;;;;;5042099;28;20474;-59
2023/09/05 09:44:25;;;;;;;5.60;5.10;;;22.00;99.90;;;;;;5047202;28;20469;-59
2023/09/05 09:46:55;;;;;;;5.40;5.00;;;22.10;99.90;;;;;;5040799;28;20481;-59
2023/09/05 09:49:24;;;;;;;5.20;4.80;;;22.20;99.90;;;;;;5037834;28;20540;-59
2023/09/05 09:51:55;;;;;;;6.20;4.77;;;22.30;99.90;;;;;;5038456;28;20597;-59
2023/09/05 09:54:31;;;;;;;4.60;4.30;;;22.30;99.90;;;;;;5043632;28;20494;-59
2023/09/05 09:57:04;;;;;;;5.07;4.67;;;22.30;99.90;;;;;;5042417;28;20547;-58
2023/09/05 09:59:35;;;;;;;5.10;4.70;;;22.40;99.90;;;;;;5041274;28;20466;-59
2023/09/05 10:02:09;;;;;;;5.40;4.80;;;22.50;99.90;;;;;;5048518;28;20926;-59
2023/09/05 10:04:43;;;;;;;5.03;4.50;;;22.60;99.90;;;;;;5043105;28;20496;-59
2023/09/05 10:07:14;;;;;;;5.13;4.60;;;22.70;99.90;;;;;;5046551;28;20470;-59
2023/09/05 10:09:44;;;;;;;6.43;4.37;;;22.70;99.90;;;;;;5040942;28;20528;-59
2023/09/05 10:12:15;;;;;;;5.00;4.50;;;22.80;99.90;;;;;;5043597;28;21205;-60
2023/09/05 10:14:44;;;;;;;4.80;4.40;;;23.00;99.90;;;;;;5045967;28;20859;-59
2023/09/05 10:17:13;;;;;;;4.10;3.70;;;23.10;99.90;;;;;;5047720;28;20921;-59
2023/09/05 10:19:43;;;;;;;4.83;4.27;;;23.10;99.90;;;;;;5044194;28;20472;-59
2023/09/05 10:22:16;;;;;;;4.40;4.07;;;23.20;99.90;;;;;;5047038;28;20478;-59
2023/09/05 10:24:45;;;;;;;5.13;4.57;;;23.40;99.90;;;;;;5045847;28;20881;-59
2023/09/05 10:27:15;;;;;;;4.27;3.97;;;23.50;99.90;;;;;;5040764;28;20462;-59
2023/09/05 10:29:45;;;;;;;4.80;4.00;;;23.60;99.90;;;;;;5041586;28;20466;-59
2023/09/05 10:32:16;;;;;;;5.77;4.63;;;23.60;99.90;;;;;;5044700;28;20477;-59
2023/09/05 10:34:58;;;;;;;6.27;4.83;;;23.70;99.90;;;;;;5038631;28;21019;-60
2023/09/05 10:37:38;;;;;;;4.67;4.10;;;23.80;99.90;;;;;;5044886;28;20493;-59
2023/09/05 10:40:10;;;;;;;5.80;4.43;;;24.00;99.90;;;;;;5045977;28;20470;-59
2023/09/05 10:42:45;;;;;;;4.33;4.03;;;24.10;99.90;;;;;;5045059;28;20474;-58
2023/09/05 10:45:34;;;;;;;4.40;4.00;;;24.20;99.90;;;;;;5043574;28;20543;-59
2023/09/05 10:48:07;;;;;;;3.67;3.30;;;24.40;99.90;;;;;;5042424;28;20470;-59
2023/09/05 10:51:20;;;;;;;4.10;3.50;;;24.40;99.90;;;;;;5039175;28;20988;-59
2023/09/05 10:53:48;;;;;;;4.17;3.77;;;24.60;99.90;;;;;;4983449;28;20469;-60
2023/09/05 10:56:39;;;;;;;3.63;3.37;;;24.70;99.90;;;;;;5021255;28;20485;-59
2023/09/05 10:59:12;;;;;;;4.90;4.10;;;24.80;99.90;;;;;;5040610;28;20497;-60
2023/09/05 11:01:48;;;;;;;4.07;3.67;;;24.90;99.90;;;;;;5037659;28;20506;-59
2023/09/05 11:04:23;;;;;;;4.20;3.80;;;25.00;99.90;;;;;;5036912;28;21005;-59
2023/09/05 11:06:59;;;;;;;4.90;3.83;;;25.20;99.90;;;;;;5037591;28;20486;-59
2023/09/05 11:09:28;;;;;;;3.73;3.37;;;25.30;99.90;;;;;;5041926;28;20539;-60
2023/09/05 11:11:56;;;;;;;5.50;3.80;;;25.50;99.90;;;;;;5045045;28;20933;-59
2023/09/05 11:14:35;;;;;;;4.03;3.63;;;25.60;99.90;;;;;;5043542;28;20565;-59
2023/09/05 11:17:04;;;;;;;3.83;3.53;;;25.70;99.90;;;;;;5042730;28;21707;-60
2023/09/05 11:19:38;;;;;;;4.10;3.70;;;25.80;99.90;;;;;;5046631;28;20533;-59
2023/09/05 11:22:10;;;;;;;4.30;3.87;;;25.90;99.90;;;;;;5044443;28;20470;-60
2023/09/05 11:24:45;;;;;;;4.43;3.50;;;26.00;99.90;;;;;;5042340;28;20498;-59
2023/09/05 11:27:15;;;;;;;4.97;3.83;;;26.10;99.90;;;;;;5033199;28;20596;-60
2023/09/05 11:29:45;;;;;;;5.00;4.23;;;26.30;99.90;;;;;;5040681;28;20917;-59
2023/09/05 11:32:14;;;;;;;5.03;4.40;;;26.40;99.90;;;;;;5044109;28;20963;-59
2023/09/05 11:34:44;;;;;;;5.10;3.77;;;26.60;99.90;;;;;;5041073;28;20512;-60
2023/09/05 11:37:19;;;;;;;4.03;3.53;;;26.70;99.90;;;;;;5039625;28;20558;-60
2023/09/05 11:39:49;;;;;;;3.87;3.57;;;26.90;99.90;;;;;;5042958;28;20466;-60
2023/09/05 11:42:22;;;;;;;4.10;3.80;;;27.00;99.90;;;;;;5030320;28;20599;-60
2023/09/05 11:44:54;;;;;;;3.80;3.50;;;27.10;99.90;;;;;;5037124;28;20504;-60
2023/09/05 11:47:23;;;;;;;3.63;3.37;;;27.20;99.90;;;;;;5034076;28;21183;-60
2023/09/05 11:49:53;;;;;;;4.03;3.40;;;27.30;99.90;;;;;;5039330;28;20872;-60
2023/09/05 11:52:23;;;;;;;3.90;3.60;;;27.50;99.90;;;;;;5030844;28;21073;-59
2023/09/05 11:54:53;;;;;;;3.57;3.30;;;27.60;99.90;;;;;;5040341;28;20497;-60
2023/09/05 11:57:23;;;;;;;3.60;3.30;;;27.70;99.90;;;;;;5040563;28;20502;-60
2023/09/05 11:59:52;;;;;;;3.60;3.30;;;27.80;99.90;;;;;;5041280;28;20852;-60
2023/09/05 12:02:20;;;;;;;6.10;3.53;;;27.90;99.90;;;;;;5040458;28;20510;-60
2023/09/05 12:04:49;;;;;;;3.33;2.97;;;28.10;99.90;;;;;;5038054;28;20479;-60
2023/09/05 12:07:19;;;;;;;3.57;3.27;;;28.30;99.90;;;;;;5041427;28;20554;-60
2023/09/05 12:09:48;;;;;;;4.13;2.83;;;28.50;99.90;;;;;;5043353;28;20495;-60
2023/09/05 12:12:19;;;;;;;3.70;3.10;;;28.50;99.90;;;;;;5035947;28;20468;-60
2023/09/05 12:14:49;;;;;;;3.60;3.30;;;28.70;99.90;;;;;;5038860;28;21012;-58
2023/09/05 12:17:19;;;;;;;3.50;3.20;;;28.80;99.90;;;;;;5039819;28;20496;-59
2023/09/05 12:19:48;;;;;;;3.63;3.17;;;28.90;99.90;;;;;;5037781;28;20923;-59
2023/09/05 12:22:28;;;;;;;3.50;3.30;;;29.10;99.90;;;;;;5033822;28;21129;-60
2023/09/05 12:25:10;;;;;;;3.50;3.30;;;29.30;99.90;;;;;;5035298;28;20492;-59
2023/09/05 12:27:43;;;;;;;3.47;3.17;;;29.40;99.90;;;;;;5037849;28;20479;-59
2023/09/05 12:30:28;;;;;;;4.00;3.70;;;29.60;99.90;;;;;;5034105;28;20470;-59
2023/09/05 12:32:59;;;;;;;5.10;3.57;;;29.60;99.90;;;;;;5037804;28;20998;-59
2023/09/05 12:35:28;;;;;;;3.50;3.20;;;29.80;99.90;;;;;;5040463;28;21010;-60
2023/09/05 12:37:57;;;;;;;3.60;3.30;;;29.90;99.90;;;;;;5039426;28;20466;-60
2023/09/05 12:40:26;;;;;;;3.63;3.33;;;30.10;99.20;;;;;;5036402;28;20478;-60
2023/09/05 12:42:55;;;;;;;3.47;3.27;;;30.20;99.90;;;;;;5036716;28;20535;-60
2023/09/05 12:45:23;;;;;;;3.20;2.50;;;30.30;99.90;;;;;;5025756;28;20494;-60
2023/09/05 12:47:52;;;;;;;3.10;2.80;;;30.40;99.90;;;;;;5040924;28;20888;-60
2023/09/05 12:50:28;;;;;;;2.70;2.60;;;30.70;98.00;;;;;;5040302;28;21081;-59
2023/09/05 12:52:56;;;;;;;2.93;2.70;;;30.90;94.80;;;;;;5034146;28;20470;-60
2023/09/05 12:55:25;;;;;;;3.83;2.80;;;31.10;97.90;;;;;;5035174;28;20567;-60
2023/09/05 12:57:53;;;;;;;3.30;3.03;;;31.30;98.50;;;;;;5038849;28;20466;-60